createdAt,value
2019-05-11T00:01:10.716Z,11.10
2019-05-11T00:03:39.127Z,11.35
2019-05-11T00:06:07.777Z,11.22
2019-05-11T00:08:36.418Z,14.98
2019-05-11T00:11:04.822Z,10.85
2019-05-11T00:13:33.258Z,12.70
2019-05-11T00:16:01.663Z,14.38
2019-05-11T00:18:30.117Z,9.95
2019-05-11T00:20:58.512Z,11.28
2019-05-11T00:23:26.952Z,11.50
2019-05-11T00:25:55.646Z,11.55
2019-05-11T00:28:24.066Z,11.30
2019-05-11T00:30:52.454Z,12.30
2019-05-11T00:33:21.096Z,10.82
2019-05-11T00:35:49.499Z,12.88
2019-05-11T00:38:17.899Z,12.37
2019-05-11T00:40:46.365Z,12.33
2019-05-11T00:43:14.772Z,12.82
2019-05-11T00:45:43.170Z,12.53
2019-05-11T00:48:11.631Z,12.75
2019-05-11T00:50:40.253Z,13.48
2019-05-11T00:53:08.715Z,12.98
2019-05-11T00:55:37.186Z,12.25
2019-05-11T00:58:05.589Z,10.53
2019-05-11T01:00:34.001Z,11.22
2019-05-11T01:03:02.398Z,11.48
2019-05-11T01:05:30.802Z,11.25
2019-05-11T01:07:59.230Z,12.28
2019-05-11T01:10:40.993Z,12.07
2019-05-11T01:12:57.762Z,14.43
2019-05-11T01:15:26.170Z,11.93
2019-05-11T01:17:54.570Z,11.50
2019-05-11T01:20:23.017Z,12.28
2019-05-11T01:22:51.394Z,13.13
2019-05-11T01:25:19.828Z,11.85
2019-05-11T01:27:48.478Z,11.12
2019-05-11T01:30:17.027Z,12.65
2019-05-11T01:32:45.658Z,16.17
2019-05-11T01:35:14.306Z,13.32
2019-05-11T01:37:42.710Z,13.80
2019-05-11T01:40:11.416Z,12.40
2019-05-11T01:42:39.843Z,11.45
2019-05-11T01:45:08.499Z,12.35
2019-05-11T01:47:36.912Z,11.78
2019-05-11T01:50:05.699Z,11.85
2019-05-11T01:52:34.709Z,13.00
2019-05-11T01:55:03.190Z,12.05
2019-05-11T01:57:31.589Z,12.63
2019-05-11T02:00:00.016Z,13.13
2019-05-11T02:02:28.446Z,11.95
2019-05-11T02:05:14.927Z,12.60
2019-05-11T02:07:43.358Z,13.00
2019-05-11T02:10:12.131Z,13.95
2019-05-11T02:12:40.532Z,13.28
2019-05-11T02:15:09.077Z,12.20
2019-05-11T02:17:37.554Z,13.62
2019-05-11T02:20:06.329Z,12.23
2019-05-11T02:22:34.971Z,11.97
2019-05-11T02:25:04.147Z,11.50
2019-05-11T02:27:32.790Z,13.68
2019-05-11T02:30:01.453Z,12.37
2019-05-11T02:32:30.078Z,12.58
2019-05-11T02:34:58.599Z,12.28
2019-05-11T02:37:27.108Z,12.75
2019-05-11T02:39:55.515Z,14.75
2019-05-11T02:42:23.914Z,13.58
2019-05-11T02:44:52.580Z,12.55
2019-05-11T02:47:21.031Z,13.03
2019-05-11T02:49:49.554Z,12.47
2019-05-11T02:52:18.700Z,15.58
2019-05-11T02:54:48.035Z,14.13
2019-05-11T02:57:16.701Z,12.98
2019-05-11T02:59:45.118Z,13.10
2019-05-11T03:02:13.550Z,16.40
2019-05-11T03:04:41.961Z,17.62
2019-05-11T03:07:10.601Z,13.25
2019-05-11T03:09:39.014Z,12.40
2019-05-11T03:12:07.420Z,13.83
2019-05-11T03:14:35.822Z,15.10
2019-05-11T03:17:11.642Z,17.05
2019-05-11T03:19:40.219Z,18.42
2019-05-11T03:22:08.738Z,15.93
2019-05-11T03:24:37.139Z,17.20
2019-05-11T03:27:05.550Z,14.90
2019-05-11T03:29:33.957Z,14.25
2019-05-11T03:32:02.723Z,13.53
2019-05-11T03:34:31.195Z,12.50
2019-05-11T03:36:59.603Z,14.15
2019-05-11T03:39:28.021Z,14.83
2019-05-11T03:42:13.294Z,18.35
2019-05-11T03:44:26.582Z,17.90
2019-05-11T03:46:54.983Z,18.30
2019-05-11T03:49:23.409Z,20.72
2019-05-11T03:51:52.105Z,15.28
2019-05-11T03:54:20.507Z,20.00
2019-05-11T03:56:48.920Z,17.55
2019-05-11T03:59:17.336Z,16.05
2019-05-11T04:01:45.764Z,18.35
2019-05-11T04:04:16.655Z,16.42
2019-05-11T04:06:44.317Z,16.95
2019-05-11T04:09:12.727Z,16.12
2019-05-11T04:11:41.127Z,16.17
2019-05-11T04:14:09.536Z,17.07
2019-05-11T04:16:37.939Z,17.15
2019-05-11T04:19:06.355Z,16.17
2019-05-11T04:21:34.737Z,16.82
2019-05-11T04:24:03.141Z,14.43
2019-05-11T04:26:31.560Z,16.00
2019-05-11T04:29:00.213Z,16.50
2019-05-11T04:31:28.727Z,13.45
2019-05-11T04:33:57.198Z,13.45
2019-05-11T04:36:25.646Z,18.23
2019-05-11T04:38:54.068Z,14.20
2019-05-11T04:41:22.515Z,15.28
2019-05-11T04:43:50.921Z,16.42
2019-05-11T04:46:19.327Z,15.13
2019-05-11T04:48:47.731Z,15.93
2019-05-11T04:51:16.205Z,17.05
2019-05-11T04:53:44.612Z,13.48
2019-05-11T04:56:13.289Z,17.12
2019-05-11T04:58:41.705Z,17.02
2019-05-11T05:01:10.134Z,16.17
2019-05-11T05:03:41.164Z,16.50
2019-05-11T05:06:22.152Z,16.45
2019-05-11T05:08:38.841Z,16.02
2019-05-11T05:11:07.251Z,14.65
2019-05-11T05:13:35.708Z,14.93
2019-05-11T05:16:04.158Z,13.95
2019-05-11T05:18:32.566Z,19.07
2019-05-11T05:21:00.975Z,14.10
2019-05-11T05:23:29.377Z,18.55
2019-05-11T05:25:58.018Z,15.28
2019-05-11T05:28:26.444Z,15.63
2019-05-11T05:30:55.100Z,15.53
2019-05-11T05:33:23.505Z,16.45
2019-05-11T05:35:52.175Z,16.93
2019-05-11T05:38:20.598Z,17.75
2019-05-11T05:40:49.003Z,20.88
2019-05-11T05:43:25.992Z,16.73
2019-05-11T05:45:47.554Z,18.12
2019-05-11T05:48:15.984Z,15.95
2019-05-11T05:50:44.438Z,20.30
2019-05-11T05:53:12.862Z,16.57
2019-05-11T05:55:41.371Z,16.87
2019-05-11T05:58:09.790Z,15.65
2019-05-11T06:00:38.282Z,20.95
2019-05-11T06:03:07.014Z,15.00
2019-05-11T06:05:35.429Z,17.23
2019-05-11T06:08:03.879Z,13.93
2019-05-11T06:10:32.290Z,15.18
2019-05-11T06:13:00.691Z,14.40
2019-05-11T06:15:29.360Z,16.60
2019-05-11T06:18:00.407Z,14.28
2019-05-11T06:20:27.874Z,15.10
2019-05-11T06:22:56.272Z,14.53
2019-05-11T06:25:24.689Z,11.90
2019-05-11T06:27:53.168Z,12.43
2019-05-11T06:30:21.699Z,11.25
2019-05-11T06:32:50.090Z,11.48
2019-05-11T06:35:22.408Z,12.30
2019-05-11T06:37:48.993Z,12.95
2019-05-11T06:40:17.544Z,14.30
2019-05-11T06:42:45.937Z,13.72
2019-05-11T06:45:14.522Z,12.43
2019-05-11T06:47:42.922Z,13.10
2019-05-11T06:50:11.808Z,17.07
2019-05-11T06:52:40.244Z,12.60
2019-05-11T06:55:08.780Z,16.80
2019-05-11T06:57:37.170Z,17.50
2019-05-11T07:00:06.278Z,14.70
2019-05-11T07:02:34.715Z,14.65
2019-05-11T07:05:03.297Z,16.15
2019-05-11T07:07:46.574Z,15.53
2019-05-11T07:10:01.895Z,13.65
2019-05-11T07:12:30.370Z,17.92
2019-05-11T07:14:58.773Z,14.18
2019-05-11T07:17:27.176Z,13.35
2019-05-11T07:19:55.584Z,14.68
2019-05-11T07:22:24.023Z,13.18
2019-05-11T07:24:52.426Z,15.30
2019-05-11T07:27:20.833Z,12.82
2019-05-11T07:29:49.235Z,12.20
2019-05-11T07:32:25.063Z,13.55
2019-05-11T07:34:48.708Z,16.12
2019-05-11T07:37:18.527Z,12.98
2019-05-11T07:39:48.745Z,8.60
2019-05-11T07:42:18.065Z,11.40
2019-05-11T07:44:48.109Z,7.53
2019-05-11T07:47:18.696Z,7.40
2019-05-11T07:49:48.905Z,7.42
2019-05-11T07:52:18.215Z,6.85
2019-05-11T07:54:51.972Z,5.47
2019-05-11T07:57:18.609Z,6.80
2019-05-11T07:59:48.624Z,4.83
2019-05-11T08:02:17.800Z,6.00
2019-05-11T08:04:48.162Z,6.10
2019-05-11T08:07:18.151Z,6.05
2019-05-11T08:09:48.324Z,5.35
2019-05-11T08:12:19.182Z,7.17
2019-05-11T08:14:58.925Z,5.25
2019-05-11T08:17:18.648Z,5.80
2019-05-11T08:19:47.696Z,4.47
2019-05-11T08:22:22.160Z,6.37
2019-05-11T08:24:48.154Z,8.78
2019-05-11T08:27:18.711Z,4.55
2019-05-11T08:29:48.830Z,4.75
2019-05-11T08:32:18.341Z,5.33
2019-05-11T08:34:49.011Z,3.60
2019-05-11T08:37:18.938Z,3.85
2019-05-11T08:39:48.229Z,5.92
2019-05-11T08:42:17.904Z,4.15
2019-05-11T08:44:48.360Z,5.50
2019-05-11T08:47:17.785Z,4.08
2019-05-11T08:49:48.303Z,3.75
2019-05-11T08:52:18.518Z,5.03
2019-05-11T08:54:48.724Z,3.92
2019-05-11T08:57:18.020Z,3.80
2019-05-11T08:59:48.408Z,4.30
2019-05-11T09:02:18.641Z,4.67
2019-05-11T09:04:48.469Z,2.75
2019-05-11T09:07:18.413Z,4.47
2019-05-11T09:09:48.401Z,3.90
2019-05-11T09:12:18.303Z,3.72
2019-05-11T09:14:47.831Z,3.17
2019-05-11T09:17:18.244Z,4.40
2019-05-11T09:19:48.098Z,2.65
2019-05-11T09:22:18.640Z,2.50
2019-05-11T09:24:47.735Z,2.52
2019-05-11T09:27:18.430Z,3.05
2019-05-11T09:29:48.007Z,4.05
2019-05-11T09:32:17.940Z,3.92
2019-05-11T09:34:48.482Z,3.20
2019-05-11T09:37:18.413Z,3.27
2019-05-11T09:39:47.853Z,2.85
2019-05-11T09:42:17.949Z,2.80
2019-05-11T09:44:48.550Z,5.58
2019-05-11T09:47:18.944Z,2.10
2019-05-11T09:49:50.140Z,2.58
2019-05-11T09:52:18.385Z,2.90
2019-05-11T09:54:48.755Z,2.87
2019-05-11T09:57:18.512Z,3.12
2019-05-11T09:59:47.843Z,2.47
2019-05-11T10:02:20.722Z,3.22
2019-05-11T10:04:48.394Z,4.40
2019-05-11T10:07:18.076Z,2.65
2019-05-11T10:09:47.894Z,2.58
2019-05-11T10:12:18.145Z,2.40
2019-05-11T10:14:48.576Z,2.47
2019-05-11T10:17:18.216Z,2.90
2019-05-11T10:19:49.471Z,2.98
2019-05-11T10:22:18.558Z,2.60
2019-05-11T10:24:47.771Z,2.65
2019-05-11T10:27:18.727Z,5.28
2019-05-11T10:29:48.404Z,2.02
2019-05-11T10:32:18.281Z,3.12
2019-05-11T10:34:47.807Z,3.30
2019-05-11T10:37:17.663Z,3.12
2019-05-11T10:39:48.677Z,2.95
2019-05-11T10:42:18.032Z,2.65
2019-05-11T10:44:47.885Z,3.75
2019-05-11T10:47:18.415Z,5.28
2019-05-11T10:49:48.521Z,2.55
2019-05-11T10:52:18.064Z,4.10
2019-05-11T10:54:47.770Z,4.42
2019-05-11T10:57:18.900Z,5.37
2019-05-11T10:59:48.899Z,2.98
2019-05-11T11:02:18.470Z,3.65
2019-05-11T11:04:48.595Z,4.80
2019-05-11T11:07:19.423Z,4.15
2019-05-11T11:09:49.088Z,4.42
2019-05-11T11:12:18.746Z,3.60
2019-05-11T11:14:48.213Z,3.50
2019-05-11T11:17:19.131Z,5.65
2019-05-11T11:19:48.657Z,3.70
2019-05-11T11:22:35.998Z,3.90
2019-05-11T11:24:48.287Z,5.10
2019-05-11T11:27:18.471Z,3.87
2019-05-11T11:29:47.661Z,3.60
2019-05-11T11:32:18.368Z,3.83
2019-05-11T11:34:48.483Z,4.35
2019-05-11T11:37:17.593Z,4.15
2019-05-11T11:39:47.640Z,4.40
2019-05-11T11:42:17.876Z,6.45
2019-05-11T11:44:48.373Z,4.50
2019-05-11T11:47:20.990Z,5.15
2019-05-11T11:49:47.567Z,5.92
2019-05-11T11:52:18.811Z,8.08
2019-05-11T11:54:47.926Z,6.65
2019-05-11T11:57:18.171Z,5.50
2019-05-11T11:59:48.148Z,5.70
2019-05-11T12:02:18.883Z,7.20
2019-05-11T12:04:48.618Z,6.22
2019-05-11T12:07:18.024Z,7.28
2019-05-11T12:09:48.389Z,8.55
2019-05-11T12:12:18.608Z,6.87
2019-05-11T12:14:48.025Z,6.83
2019-05-11T12:17:18.161Z,7.08
2019-05-11T12:19:48.504Z,7.78
2019-05-11T12:22:18.791Z,8.20
2019-05-11T12:24:48.170Z,7.00
2019-05-11T12:27:18.268Z,8.40
2019-05-11T12:29:47.735Z,8.65
2019-05-11T12:32:20.484Z,10.60
2019-05-11T12:34:49.008Z,9.43
2019-05-11T12:37:18.021Z,11.05
2019-05-11T12:39:47.841Z,9.48
2019-05-11T12:42:17.970Z,12.85
2019-05-11T12:44:48.134Z,13.20
2019-05-11T12:47:22.150Z,10.85
2019-05-11T12:49:48.364Z,14.07
2019-05-11T12:52:18.506Z,14.47
2019-05-11T12:54:47.884Z,14.53
2019-05-11T12:57:18.633Z,16.77
2019-05-11T12:59:49.085Z,19.20
2019-05-11T13:02:18.403Z,17.67
2019-05-11T13:04:47.722Z,17.95
2019-05-11T13:07:19.549Z,17.97
2019-05-11T13:09:48.426Z,19.32
2019-05-11T13:12:18.668Z,20.80
2019-05-11T13:14:48.866Z,24.15
2019-05-11T13:17:18.720Z,24.65
2019-05-11T13:19:49.334Z,33.88
2019-05-11T13:22:18.469Z,25.82
2019-05-11T13:24:48.130Z,36.38
2019-05-11T13:27:17.850Z,33.55
2019-05-11T13:29:48.647Z,31.35
2019-05-11T13:32:18.534Z,31.07
2019-05-11T13:34:48.038Z,32.90
2019-05-11T13:37:18.816Z,41.25
2019-05-11T13:39:48.999Z,31.85
2019-05-11T13:42:19.519Z,34.50
2019-05-11T13:44:47.972Z,33.48
2019-05-11T13:47:18.022Z,33.00
2019-05-11T13:49:47.986Z,29.12
2019-05-11T13:52:18.518Z,32.28
2019-05-11T13:54:48.574Z,29.65
2019-05-11T13:57:18.186Z,31.77
2019-05-11T13:59:47.725Z,32.53
2019-05-11T14:02:18.092Z,31.33
2019-05-11T14:04:48.097Z,25.90
2019-05-11T14:07:18.842Z,25.43
2019-05-11T14:09:48.533Z,28.03
2019-05-11T14:12:18.209Z,25.25
2019-05-11T14:14:48.118Z,25.00
2019-05-11T14:17:18.632Z,22.27
2019-05-11T14:19:49.174Z,28.60
2019-05-11T14:22:17.979Z,24.80
2019-05-11T14:24:48.300Z,21.77
2019-05-11T14:27:17.923Z,24.17
2019-05-11T14:29:48.701Z,23.70
2019-05-11T14:32:17.266Z,26.10
2019-05-11T14:34:48.354Z,24.07
2019-05-11T14:37:18.062Z,28.40
2019-05-11T14:39:48.208Z,26.83
2019-05-11T14:42:21.939Z,26.70
2019-05-11T14:44:48.254Z,25.90
2019-05-11T14:47:17.893Z,31.27
2019-05-11T14:49:48.384Z,23.20
2019-05-11T14:52:18.758Z,22.70
2019-05-11T14:54:48.654Z,23.07
2019-05-11T14:57:18.701Z,22.90
2019-05-11T14:59:48.388Z,19.57
2019-05-11T15:02:34.810Z,21.40
2019-05-11T15:05:03.611Z,21.57
2019-05-11T15:07:32.086Z,18.60
2019-05-11T15:10:00.811Z,25.30
2019-05-11T15:12:29.472Z,19.33
2019-05-11T15:14:59.125Z,21.73
2019-05-11T15:17:28.264Z,20.60
2019-05-11T15:22:44.711Z,18.77
2019-05-11T15:25:14.786Z,21.50
2019-05-11T15:27:43.281Z,24.33
2019-05-11T15:30:12.346Z,21.37
2019-05-11T15:32:40.770Z,20.20
2019-05-11T15:35:09.358Z,22.35
2019-05-11T15:37:38.518Z,21.90
2019-05-11T15:40:18.575Z,21.40
2019-05-11T15:42:49.208Z,23.35
2019-05-11T15:45:19.434Z,18.17
2019-05-11T15:47:48.847Z,20.60
2019-05-11T15:50:19.416Z,20.97
2019-05-11T15:55:42.273Z,15.60
2019-05-11T15:58:11.405Z,18.90
2019-05-11T16:00:40.162Z,14.40
2019-05-11T16:03:08.813Z,18.27
2019-05-11T16:05:37.363Z,17.87
2019-05-11T16:08:08.133Z,16.40
2019-05-11T16:10:38.218Z,11.57
2019-05-11T16:13:08.918Z,12.53
2019-05-11T16:15:39.437Z,14.80
2019-05-11T16:18:08.456Z,10.93
2019-05-11T16:20:37.486Z,11.50
2019-05-11T16:23:06.238Z,8.33
2019-05-11T16:25:34.645Z,11.57
2019-05-11T16:28:03.123Z,11.43
2019-05-11T16:30:31.635Z,11.50
2019-05-11T16:33:00.080Z,8.73
2019-05-11T16:35:28.510Z,11.10
2019-05-11T16:37:59.203Z,7.80
2019-05-11T16:40:33.550Z,8.37
2019-05-11T16:43:02.219Z,11.53
2019-05-11T16:45:30.667Z,6.77
2019-05-11T16:47:59.378Z,16.03
2019-05-11T16:50:28.260Z,6.10
2019-05-11T16:52:58.564Z,10.97
2019-05-11T16:55:27.249Z,8.88
2019-05-11T16:57:58.642Z,8.83
2019-05-11T17:00:26.467Z,8.08
2019-05-11T17:02:57.539Z,10.48
2019-05-11T17:05:30.299Z,7.87
2019-05-11T17:07:55.664Z,17.87
2019-05-11T17:10:24.152Z,8.27
2019-05-11T17:12:52.581Z,6.10
2019-05-11T17:15:21.024Z,7.60
2019-05-11T17:17:49.777Z,12.20
2019-05-11T17:20:18.979Z,9.13
2019-05-11T17:22:48.267Z,8.77
2019-05-11T17:25:19.402Z,7.67
2019-05-11T17:27:48.690Z,6.27
2019-05-11T17:30:19.372Z,6.30
2019-05-11T17:32:49.346Z,7.70
2019-05-11T17:35:18.345Z,8.75
2019-05-11T17:37:48.599Z,9.53
2019-05-11T17:40:20.441Z,7.40
2019-05-11T17:42:48.211Z,6.07
2019-05-11T17:45:18.827Z,5.87
2019-05-11T17:47:47.101Z,6.80
2019-05-11T17:50:15.782Z,6.00
2019-05-11T17:52:44.456Z,12.67
2019-05-11T17:55:13.487Z,9.03
2019-05-11T17:57:42.266Z,9.13
2019-05-11T18:00:11.247Z,11.03
2019-05-11T18:02:39.723Z,7.13
2019-05-11T18:05:08.991Z,11.87
2019-05-11T18:07:38.566Z,8.37
2019-05-11T18:10:08.217Z,7.40
2019-05-11T18:12:39.143Z,5.67
2019-05-11T18:15:09.227Z,8.10
2019-05-11T18:17:37.732Z,14.80
2019-05-11T18:20:16.924Z,10.13
2019-05-11T18:22:39.100Z,7.93
2019-05-11T18:25:08.914Z,6.40
2019-05-11T18:27:38.635Z,7.90
2019-05-11T18:30:09.862Z,7.30
2019-05-11T18:32:39.634Z,9.83
2019-05-11T18:35:10.255Z,6.30
2019-05-11T18:37:39.054Z,6.00
2019-05-11T18:40:08.144Z,7.10
2019-05-11T18:42:38.319Z,8.95
2019-05-11T18:45:08.327Z,6.10
2019-05-11T18:47:38.161Z,22.52
2019-05-11T18:50:08.348Z,40.78
2019-05-11T18:52:37.331Z,18.98
2019-05-11T18:55:10.042Z,20.70
2019-05-11T18:57:38.534Z,12.05
2019-05-11T19:00:10.947Z,10.85
2019-05-11T19:02:40.871Z,7.70
2019-05-11T19:05:10.306Z,11.85
2019-05-11T19:07:40.410Z,8.85
2019-05-11T19:10:09.495Z,7.03
2019-05-11T19:12:37.906Z,10.40
2019-05-11T19:15:09.398Z,7.62
2019-05-11T19:17:38.448Z,8.60
2019-05-11T19:20:08.506Z,11.53
2019-05-11T19:22:38.228Z,11.83
2019-05-11T19:25:08.957Z,9.90
2019-05-11T19:27:37.665Z,9.78
2019-05-11T19:30:08.190Z,8.48
2019-05-11T19:32:38.269Z,8.80
2019-05-11T19:35:09.608Z,12.28
2019-05-11T19:37:39.343Z,10.72
2019-05-11T19:40:09.036Z,11.80
2019-05-11T19:42:54.514Z,7.75
2019-05-11T19:45:23.145Z,10.20
2019-05-11T19:47:51.542Z,33.48
2019-05-11T19:50:19.945Z,10.25
2019-05-11T19:52:48.789Z,8.68
2019-05-11T19:55:17.882Z,8.40
2019-05-11T19:57:48.271Z,9.68
2019-05-11T20:00:18.771Z,8.88
2019-05-11T20:02:47.399Z,7.95
2019-05-11T20:05:18.169Z,7.65
2019-05-11T20:07:48.612Z,12.23
2019-05-11T20:10:18.929Z,7.72
2019-05-11T20:12:49.644Z,9.48
2019-05-11T20:18:12.062Z,10.20
2019-05-11T20:20:43.862Z,8.95
2019-05-11T20:23:15.500Z,10.28
2019-05-11T20:25:47.787Z,6.37
2019-05-11T20:28:18.298Z,16.00
2019-05-11T20:30:48.316Z,7.95
2019-05-11T20:33:18.981Z,7.55
2019-05-11T20:35:52.875Z,10.40
2019-05-11T20:38:27.897Z,6.85
2019-05-11T20:43:55.512Z,8.28
2019-05-11T20:46:23.994Z,8.70
2019-05-11T20:48:58.875Z,7.97
2019-05-11T20:51:36.639Z,10.88
2019-05-11T20:54:01.989Z,11.05
2019-05-11T20:56:34.838Z,10.18
2019-05-11T20:59:04.875Z,8.45
2019-05-11T21:04:30.203Z,9.53
2019-05-11T21:07:03.679Z,8.60
2019-05-11T21:09:34.496Z,10.72
2019-05-11T21:12:14.529Z,8.00
2019-05-11T21:14:48.844Z,8.80
2019-05-11T21:17:31.012Z,10.23
2019-05-11T21:20:01.429Z,9.15
2019-05-11T21:22:40.709Z,13.75
2019-05-11T21:25:20.365Z,11.22
2019-05-11T21:28:05.300Z,9.50
2019-05-11T21:33:33.008Z,17.42
2019-05-11T21:36:08.637Z,20.85
2019-05-11T21:38:44.742Z,11.75
2019-05-11T21:41:24.210Z,10.75
2019-05-11T21:44:11.087Z,12.53
2019-05-11T21:46:41.609Z,27.37
2019-05-11T21:49:10.287Z,12.35
2019-05-11T21:51:38.726Z,11.95
2019-05-11T21:54:07.391Z,9.38
2019-05-11T21:56:38.015Z,25.70
2019-05-11T21:59:07.924Z,13.70
2019-05-11T22:01:38.501Z,8.38
2019-05-11T22:04:08.547Z,12.73
2019-05-11T22:06:39.034Z,20.05
2019-05-11T22:09:08.327Z,15.72
2019-05-11T22:11:38.052Z,12.93
2019-05-11T22:14:08.323Z,15.45
2019-05-11T22:16:38.734Z,10.70
2019-05-11T22:19:08.955Z,20.20
2019-05-11T22:21:37.299Z,10.63
2019-05-11T22:24:05.709Z,10.82
2019-05-11T22:26:34.338Z,10.80
2019-05-11T22:29:02.732Z,12.43
2019-05-11T22:31:31.139Z,11.12
2019-05-11T22:33:59.689Z,12.35
2019-05-11T22:36:28.355Z,15.20
2019-05-11T22:38:58.751Z,11.10
2019-05-11T22:41:27.031Z,11.12
2019-05-11T22:43:55.482Z,12.88
2019-05-11T22:46:24.114Z,9.65
2019-05-11T22:48:52.503Z,18.32
2019-05-11T22:51:21.171Z,17.00
2019-05-11T22:53:50.526Z,19.77
2019-05-11T22:56:20.089Z,13.28
2019-05-11T22:58:49.978Z,12.10
2019-05-11T23:01:18.957Z,14.53
2019-05-11T23:03:47.623Z,15.00
2019-05-11T23:06:18.060Z,14.03
2019-05-11T23:08:48.324Z,18.20
2019-05-11T23:11:17.942Z,9.78
2019-05-11T23:13:47.905Z,16.30
2019-05-11T23:16:17.961Z,10.90
2019-05-11T23:18:48.073Z,9.58
2019-05-11T23:21:17.619Z,8.68
2019-05-11T23:23:47.815Z,9.90
2019-05-11T23:26:17.786Z,9.55
2019-05-11T23:28:48.665Z,8.35
2019-05-11T23:31:27.340Z,10.13
2019-05-11T23:33:57.854Z,8.15
2019-05-11T23:36:28.060Z,7.53
2019-05-11T23:38:58.556Z,7.85
2019-05-11T23:41:28.754Z,9.40
2019-05-11T23:43:58.377Z,10.88
2019-05-11T23:46:28.428Z,9.63
2019-05-11T23:49:09.989Z,9.15
2019-05-11T23:51:38.851Z,10.78
2019-05-11T23:54:08.029Z,9.38
2019-05-11T23:56:38.523Z,8.90
2019-05-11T23:59:08.249Z,8.00
